createdAt,value
2022-07-29T00:01:42.474Z,100.00
2022-07-29T00:04:11.525Z,100.00
2022-07-29T00:06:39.403Z,100.00
2022-07-29T00:09:06.880Z,100.00
2022-07-29T00:11:34.219Z,100.00
2022-07-29T00:14:01.489Z,100.00
2022-07-29T00:16:28.792Z,100.00
2022-07-29T00:18:55.901Z,100.00
2022-07-29T00:21:24.599Z,100.00
2022-07-29T00:23:51.639Z,100.00
2022-07-29T00:26:18.744Z,100.00
2022-07-29T00:28:45.804Z,100.00
2022-07-29T00:31:13.448Z,100.00
2022-07-29T00:33:40.895Z,100.00
2022-07-29T00:36:08.083Z,100.00
2022-07-29T00:38:36.924Z,100.00
2022-07-29T00:41:04.184Z,100.00
2022-07-29T00:43:31.303Z,100.00
2022-07-29T00:45:58.915Z,100.00
2022-07-29T00:48:28.755Z,100.00
2022-07-29T00:50:57.369Z,100.00
2022-07-29T00:53:25.543Z,100.00
2022-07-29T00:55:56.650Z,100.00
2022-07-29T00:58:24.434Z,100.00
2022-07-29T01:00:52.004Z,100.00
2022-07-29T01:03:19.590Z,100.00
2022-07-29T01:05:50.429Z,100.00
2022-07-29T01:08:20.041Z,100.00
2022-07-29T01:10:48.785Z,100.00
2022-07-29T01:13:18.110Z,100.00
2022-07-29T01:15:49.110Z,100.00
2022-07-29T01:18:22.398Z,100.00
2022-07-29T01:21:09.980Z,100.00
2022-07-29T01:23:53.898Z,100.00
2022-07-29T01:26:32.945Z,100.00
2022-07-29T01:29:08.257Z,100.00
2022-07-29T01:31:58.776Z,100.00
2022-07-29T01:34:32.239Z,100.00
2022-07-29T01:37:08.317Z,100.00
2022-07-29T01:39:38.199Z,100.00
2022-07-29T01:42:11.260Z,100.00
2022-07-29T01:44:46.894Z,100.00
2022-07-29T01:47:20.699Z,100.00
2022-07-29T01:49:52.548Z,100.00
2022-07-29T01:52:24.833Z,100.00
2022-07-29T01:54:57.185Z,100.00
2022-07-29T01:57:29.494Z,100.00
2022-07-29T01:59:59.928Z,100.00
2022-07-29T02:02:29.117Z,100.00
2022-07-29T02:04:59.018Z,100.00
2022-07-29T02:07:29.730Z,100.00
2022-07-29T02:09:59.032Z,100.00
2022-07-29T02:12:29.609Z,100.00
2022-07-29T02:15:01.954Z,100.00
2022-07-29T02:17:34.190Z,100.00
2022-07-29T02:20:08.214Z,100.00
2022-07-29T02:22:38.589Z,100.00
2022-07-29T02:25:08.028Z,100.00
2022-07-29T02:27:43.100Z,100.00
2022-07-29T02:30:15.038Z,100.00
2022-07-29T02:32:43.715Z,100.00
2022-07-29T02:35:13.763Z,100.00
2022-07-29T02:37:42.490Z,100.00
2022-07-29T02:40:14.600Z,100.00
2022-07-29T02:42:45.203Z,100.00
2022-07-29T02:45:13.688Z,100.00
2022-07-29T02:47:47.019Z,100.00
2022-07-29T02:50:17.978Z,100.00
2022-07-29T02:52:48.649Z,100.00
2022-07-29T02:55:20.469Z,100.00
2022-07-29T02:57:54.699Z,100.00
2022-07-29T03:00:27.064Z,100.00
2022-07-29T03:02:57.260Z,100.00
2022-07-29T03:05:25.033Z,100.00
2022-07-29T03:08:03.962Z,100.00
2022-07-29T03:10:32.361Z,100.00
2022-07-29T03:13:01.069Z,100.00
2022-07-29T03:15:30.929Z,100.00
2022-07-29T03:17:59.499Z,100.00
2022-07-29T03:20:27.953Z,100.00
2022-07-29T03:22:55.252Z,100.00
2022-07-29T03:25:22.538Z,100.00
2022-07-29T03:27:50.115Z,100.00
2022-07-29T03:30:21.604Z,100.00
2022-07-29T03:32:52.632Z,100.00
2022-07-29T03:35:20.410Z,100.00
2022-07-29T03:37:47.784Z,100.00
2022-07-29T03:40:19.358Z,100.00
2022-07-29T03:42:48.134Z,100.00
2022-07-29T03:45:19.153Z,100.00
2022-07-29T03:47:57.066Z,100.00
2022-07-29T03:50:27.388Z,100.00
2022-07-29T03:52:54.882Z,100.00
2022-07-29T03:55:22.260Z,100.00
2022-07-29T03:57:51.913Z,100.00
2022-07-29T04:00:19.179Z,100.00
2022-07-29T04:02:46.713Z,100.00
2022-07-29T04:05:16.146Z,100.00
2022-07-29T04:07:45.243Z,100.00
2022-07-29T04:10:12.776Z,100.00
2022-07-29T04:12:39.954Z,100.00
2022-07-29T04:15:08.733Z,100.00
2022-07-29T04:17:36.006Z,100.00
2022-07-29T04:20:03.843Z,100.00
2022-07-29T04:22:32.513Z,100.00
2022-07-29T04:25:03.717Z,100.00
2022-07-29T04:27:31.531Z,100.00
2022-07-29T04:29:58.723Z,100.00
2022-07-29T04:32:26.810Z,100.00
2022-07-29T04:34:53.888Z,100.00
2022-07-29T04:37:21.242Z,100.00
2022-07-29T04:39:49.986Z,100.00
2022-07-29T04:42:17.408Z,100.00
2022-07-29T04:44:44.468Z,100.00
2022-07-29T04:47:12.780Z,100.00
2022-07-29T04:49:40.589Z,100.00
2022-07-29T04:52:08.303Z,100.00
2022-07-29T04:54:35.395Z,100.00
2022-07-29T04:57:04.059Z,100.00
2022-07-29T04:59:31.144Z,100.00
2022-07-29T05:01:58.595Z,100.00
2022-07-29T05:04:25.663Z,100.00
2022-07-29T05:06:52.823Z,100.00
2022-07-29T05:09:19.893Z,100.00
2022-07-29T05:11:47.346Z,100.00
2022-07-29T05:14:17.677Z,100.00
2022-07-29T05:16:45.321Z,100.00
2022-07-29T05:19:14.689Z,100.00
2022-07-29T05:21:43.222Z,100.00
2022-07-29T05:24:10.858Z,100.00
2022-07-29T05:26:38.234Z,100.00
2022-07-29T05:29:06.076Z,100.00
2022-07-29T05:31:36.175Z,100.00
2022-07-29T05:34:03.814Z,100.00
2022-07-29T05:36:30.973Z,100.00
2022-07-29T05:38:58.717Z,100.00
2022-07-29T05:41:26.256Z,100.00
2022-07-29T05:43:53.726Z,100.00
2022-07-29T05:46:21.367Z,100.00
2022-07-29T05:48:56.099Z,100.00
2022-07-29T05:51:24.342Z,100.00
2022-07-29T05:53:52.303Z,100.00
2022-07-29T05:56:19.786Z,100.00
2022-07-29T05:58:47.845Z,100.00
2022-07-29T06:01:15.391Z,100.00
2022-07-29T06:03:43.211Z,100.00
2022-07-29T06:06:12.324Z,100.00
2022-07-29T06:08:39.884Z,100.00
2022-07-29T06:11:07.160Z,100.00
2022-07-29T06:13:34.153Z,100.00
2022-07-29T06:16:01.487Z,100.00
2022-07-29T06:18:28.726Z,100.00
2022-07-29T06:20:56.822Z,100.00
2022-07-29T06:23:25.727Z,100.00
2022-07-29T06:25:52.970Z,100.00
2022-07-29T06:28:19.876Z,100.00
2022-07-29T06:30:47.231Z,100.00
2022-07-29T06:33:18.287Z,100.00
2022-07-29T06:35:45.413Z,100.00
2022-07-29T06:38:33.728Z,100.00
2022-07-29T06:41:03.214Z,100.00
2022-07-29T06:43:31.844Z,100.00
2022-07-29T06:46:00.890Z,100.00
2022-07-29T06:48:28.959Z,100.00
2022-07-29T06:50:56.491Z,100.00
2022-07-29T06:53:23.993Z,100.00
2022-07-29T06:55:51.468Z,100.00
2022-07-29T06:58:19.959Z,100.00
2022-07-29T07:00:47.998Z,100.00
2022-07-29T07:03:15.222Z,100.00
2022-07-29T07:05:42.692Z,100.00
2022-07-29T07:08:10.187Z,100.00
2022-07-29T07:10:37.583Z,100.00
2022-07-29T07:13:06.580Z,100.00
2022-07-29T07:15:39.188Z,100.00
2022-07-29T07:18:08.028Z,100.00
2022-07-29T07:20:35.824Z,100.00
2022-07-29T07:23:03.307Z,100.00
2022-07-29T07:25:30.359Z,100.00
2022-07-29T07:27:58.195Z,100.00
2022-07-29T07:30:25.504Z,100.00
2022-07-29T07:32:54.364Z,100.00
2022-07-29T07:35:21.446Z,100.00
2022-07-29T07:37:48.813Z,100.00
2022-07-29T07:40:18.766Z,100.00
2022-07-29T07:42:46.572Z,100.00
2022-07-29T07:45:16.177Z,100.00
2022-07-29T07:47:43.982Z,100.00
2022-07-29T07:50:18.218Z,100.00
2022-07-29T07:52:51.366Z,100.00
2022-07-29T07:55:18.850Z,100.00
2022-07-29T07:57:46.335Z,100.00
2022-07-29T08:00:15.301Z,100.00
2022-07-29T08:02:42.781Z,100.00
2022-07-29T08:05:12.791Z,100.00
2022-07-29T08:07:41.593Z,100.00
2022-07-29T08:10:09.337Z,100.00
2022-07-29T08:12:36.234Z,96.35
2022-07-29T08:15:05.611Z,94.87
2022-07-29T08:17:35.519Z,91.10
2022-07-29T08:20:03.051Z,95.13
2022-07-29T08:22:30.378Z,92.02
2022-07-29T08:24:59.127Z,86.50
2022-07-29T08:27:43.094Z,84.32
2022-07-29T08:30:11.810Z,80.92
2022-07-29T08:32:55.533Z,77.02
2022-07-29T08:35:25.033Z,74.72
2022-07-29T08:37:53.305Z,76.75
2022-07-29T08:40:32.217Z,78.20
2022-07-29T08:42:59.905Z,76.58
2022-07-29T08:45:29.636Z,76.64
2022-07-29T08:47:57.091Z,67.45
2022-07-29T08:50:24.531Z,71.69
2022-07-29T08:52:56.554Z,70.82
2022-07-29T08:55:28.360Z,68.31
2022-07-29T08:57:57.365Z,69.88
2022-07-29T09:00:26.331Z,73.08
2022-07-29T09:02:58.376Z,68.13
2022-07-29T09:05:27.075Z,65.90
2022-07-29T09:07:54.378Z,66.30
2022-07-29T09:10:21.817Z,69.32
2022-07-29T09:12:50.349Z,69.47
2022-07-29T09:15:19.197Z,70.67
2022-07-29T09:17:48.255Z,70.88
2022-07-29T09:20:17.598Z,70.62
2022-07-29T09:22:44.864Z,70.58
2022-07-29T09:25:14.642Z,67.70
2022-07-29T09:27:41.737Z,69.82
2022-07-29T09:30:15.315Z,67.03
2022-07-29T09:32:56.858Z,69.90
2022-07-29T09:35:26.205Z,69.57
2022-07-29T09:37:53.757Z,73.92
2022-07-29T09:40:22.803Z,77.82
2022-07-29T09:42:50.319Z,75.36
2022-07-29T09:45:30.395Z,73.51
2022-07-29T09:47:58.310Z,76.85
2022-07-29T09:50:36.703Z,73.21
2022-07-29T09:53:03.878Z,75.65
2022-07-29T09:55:31.401Z,77.68
2022-07-29T09:58:17.449Z,77.99
2022-07-29T10:00:46.802Z,74.12
2022-07-29T10:03:14.094Z,74.47
2022-07-29T10:05:41.621Z,71.29
2022-07-29T10:08:09.937Z,75.21
2022-07-29T10:10:39.010Z,69.57
2022-07-29T10:13:13.448Z,69.46
2022-07-29T10:15:43.855Z,70.25
2022-07-29T10:18:13.693Z,69.55
2022-07-29T10:20:41.457Z,68.03
2022-07-29T10:23:09.815Z,69.54
2022-07-29T10:25:36.937Z,71.48
2022-07-29T10:28:04.518Z,66.82
2022-07-29T10:30:32.508Z,65.92
2022-07-29T10:33:12.410Z,69.05
2022-07-29T10:36:01.049Z,70.82
2022-07-29T10:38:49.858Z,72.23
2022-07-29T10:41:46.099Z,76.40
2022-07-29T10:44:19.365Z,72.90
2022-07-29T10:46:47.944Z,71.97
2022-07-29T10:49:17.109Z,73.68
2022-07-29T10:52:11.429Z,71.83
2022-07-29T10:54:46.477Z,69.09
2022-07-29T10:57:16.182Z,70.32
2022-07-29T10:59:45.132Z,69.32
2022-07-29T11:02:44.845Z,71.46
2022-07-29T11:05:14.536Z,72.88
2022-07-29T11:08:26.338Z,72.03
2022-07-29T11:11:36.081Z,69.09
2022-07-29T11:14:04.978Z,68.93
2022-07-29T11:16:59.677Z,69.10
2022-07-29T11:19:30.695Z,71.32
2022-07-29T11:21:58.361Z,66.34
2022-07-29T11:24:29.355Z,64.85
2022-07-29T11:27:13.383Z,68.07
2022-07-29T11:29:49.795Z,68.23
2022-07-29T11:32:23.449Z,64.09
2022-07-29T11:35:17.354Z,62.37
2022-07-29T11:37:52.652Z,62.16
2022-07-29T11:40:24.702Z,56.61
2022-07-29T11:42:52.482Z,58.87
2022-07-29T11:45:42.818Z,57.68
2022-07-29T11:48:29.566Z,63.72
2022-07-29T11:51:00.040Z,59.42
2022-07-29T11:53:28.765Z,61.29
2022-07-29T11:55:59.889Z,56.50
2022-07-29T11:58:28.729Z,58.14
2022-07-29T12:00:56.525Z,56.75
2022-07-29T12:03:35.478Z,57.33
2022-07-29T12:06:04.749Z,58.84
2022-07-29T12:08:41.579Z,58.07
2022-07-29T12:11:16.829Z,57.14
2022-07-29T12:13:43.716Z,58.01
2022-07-29T12:16:14.734Z,57.79
2022-07-29T12:18:41.885Z,59.06
2022-07-29T12:21:08.992Z,56.90
2022-07-29T12:23:36.350Z,56.65
2022-07-29T12:26:07.577Z,56.07
2022-07-29T12:28:40.635Z,53.62
2022-07-29T12:31:15.023Z,57.79
2022-07-29T12:34:02.181Z,57.34
2022-07-29T12:36:29.337Z,57.69
2022-07-29T12:38:56.520Z,59.58
2022-07-29T12:41:23.690Z,59.47
2022-07-29T12:43:56.308Z,56.07
2022-07-29T12:46:23.830Z,58.18
2022-07-29T12:48:53.032Z,56.69
2022-07-29T12:51:30.757Z,55.38
2022-07-29T12:54:06.678Z,55.39
2022-07-29T12:56:42.732Z,54.11
2022-07-29T12:59:19.823Z,56.84
2022-07-29T13:01:48.319Z,57.13
2022-07-29T13:04:25.828Z,55.40
2022-07-29T13:07:00.216Z,57.41
2022-07-29T13:09:38.922Z,55.92
2022-07-29T13:12:08.491Z,55.84
2022-07-29T13:14:39.219Z,53.59
2022-07-29T13:17:08.978Z,56.55
2022-07-29T13:19:39.031Z,56.71
2022-07-29T13:22:06.249Z,55.72
2022-07-29T13:24:33.461Z,56.71
2022-07-29T13:27:01.276Z,56.28
2022-07-29T13:29:33.516Z,54.42
2022-07-29T13:32:02.197Z,56.48
2022-07-29T13:34:29.628Z,60.40
2022-07-29T13:36:56.756Z,56.88
2022-07-29T13:39:23.757Z,59.93
2022-07-29T13:41:51.151Z,58.39
2022-07-29T13:44:18.400Z,56.27
2022-07-29T13:46:45.614Z,56.54
2022-07-29T13:49:14.328Z,59.04
2022-07-29T13:51:41.610Z,55.89
2022-07-29T13:54:08.803Z,58.69
2022-07-29T13:56:35.890Z,56.32
2022-07-29T13:59:03.131Z,55.75
2022-07-29T14:01:30.153Z,57.64
2022-07-29T14:03:57.082Z,55.84
2022-07-29T14:06:26.246Z,56.88
2022-07-29T14:08:53.431Z,55.90
2022-07-29T14:11:21.567Z,54.32
2022-07-29T14:13:48.799Z,52.13
2022-07-29T14:16:16.242Z,55.50
2022-07-29T14:18:43.204Z,57.07
2022-07-29T14:21:10.390Z,57.33
2022-07-29T14:23:39.041Z,51.73
2022-07-29T14:26:09.495Z,52.16
2022-07-29T14:28:43.184Z,52.85
2022-07-29T14:31:10.234Z,51.98
2022-07-29T14:33:38.334Z,52.52
2022-07-29T14:36:05.876Z,51.99
2022-07-29T14:38:33.467Z,53.45
2022-07-29T14:41:02.292Z,54.91
2022-07-29T14:43:30.736Z,53.47
2022-07-29T14:46:02.087Z,52.42
2022-07-29T14:48:32.308Z,51.86
2022-07-29T14:51:04.545Z,51.87
2022-07-29T14:53:32.067Z,49.73
2022-07-29T14:56:15.109Z,49.54
2022-07-29T14:58:51.971Z,49.52
2022-07-29T15:01:19.412Z,49.78
2022-07-29T15:03:46.622Z,50.57
2022-07-29T15:06:13.642Z,50.15
2022-07-29T15:08:40.690Z,51.17
2022-07-29T15:11:07.734Z,50.21
2022-07-29T15:13:35.248Z,50.33
2022-07-29T15:16:04.231Z,49.53
2022-07-29T15:18:31.342Z,50.03
2022-07-29T15:20:59.214Z,48.97
2022-07-29T15:23:26.692Z,46.66
2022-07-29T15:25:53.920Z,46.17
2022-07-29T15:28:21.626Z,47.18
2022-07-29T15:30:49.634Z,49.56
2022-07-29T15:33:18.968Z,47.14
2022-07-29T15:35:46.403Z,49.07
2022-07-29T15:38:14.242Z,48.21
2022-07-29T15:40:41.792Z,48.58
2022-07-29T15:43:09.301Z,47.32
2022-07-29T15:45:40.182Z,46.87
2022-07-29T15:48:10.288Z,47.03
2022-07-29T15:50:43.687Z,47.18
2022-07-29T15:53:14.699Z,47.34
2022-07-29T15:55:42.185Z,48.04
2022-07-29T15:58:11.770Z,46.29
2022-07-29T16:00:39.274Z,48.38
2022-07-29T16:03:06.286Z,48.80
2022-07-29T16:05:33.292Z,48.92
2022-07-29T16:08:02.567Z,48.37
2022-07-29T16:10:29.460Z,47.97
2022-07-29T16:12:56.793Z,48.20
2022-07-29T16:15:24.627Z,48.19
2022-07-29T16:17:51.656Z,47.88
2022-07-29T16:20:18.843Z,47.33
2022-07-29T16:22:47.541Z,47.09
2022-07-29T16:25:16.855Z,49.14
2022-07-29T16:27:44.204Z,48.56
2022-07-29T16:30:12.067Z,48.83
2022-07-29T16:32:39.537Z,48.68
2022-07-29T16:35:07.694Z,47.72
2022-07-29T16:37:35.209Z,48.72
2022-07-29T16:40:02.365Z,49.01
2022-07-29T16:42:45.995Z,48.18
2022-07-29T16:45:13.889Z,48.93
2022-07-29T16:47:41.038Z,49.19
2022-07-29T16:50:10.724Z,48.74
2022-07-29T16:52:37.952Z,49.36
2022-07-29T16:55:06.134Z,49.30
2022-07-29T16:57:35.254Z,49.61
2022-07-29T17:00:03.035Z,50.51
2022-07-29T17:02:30.916Z,51.93
2022-07-29T17:04:58.427Z,49.75
2022-07-29T17:07:25.570Z,51.64
2022-07-29T17:09:55.666Z,52.69
2022-07-29T17:12:24.584Z,53.29
2022-07-29T17:14:54.342Z,53.08
2022-07-29T17:17:39.298Z,53.71
2022-07-29T17:20:09.455Z,55.69
2022-07-29T17:22:37.430Z,57.84
2022-07-29T17:25:05.869Z,58.61
2022-07-29T17:27:33.008Z,61.47
2022-07-29T17:30:01.839Z,65.68
2022-07-29T17:32:28.828Z,67.80
2022-07-29T17:34:55.849Z,66.71
2022-07-29T17:37:22.920Z,66.67
2022-07-29T17:39:55.256Z,69.25
2022-07-29T17:42:25.657Z,70.01
2022-07-29T17:44:52.674Z,70.05
2022-07-29T17:47:21.365Z,71.81
2022-07-29T17:49:48.453Z,71.69
2022-07-29T17:52:15.868Z,75.16
2022-07-29T17:54:43.077Z,76.63
2022-07-29T17:57:10.632Z,75.37
2022-07-29T17:59:38.407Z,74.99
2022-07-29T18:02:05.641Z,78.02
2022-07-29T18:04:34.475Z,79.40
2022-07-29T18:07:02.135Z,77.35
2022-07-29T18:09:29.840Z,76.69
2022-07-29T18:11:57.110Z,75.34
2022-07-29T18:14:24.084Z,77.78
2022-07-29T18:16:53.591Z,78.53
2022-07-29T18:19:20.810Z,78.19
2022-07-29T18:21:54.651Z,79.54
2022-07-29T18:24:22.820Z,81.43
2022-07-29T18:26:49.755Z,84.06
2022-07-29T18:29:16.834Z,84.50
2022-07-29T18:31:44.408Z,82.85
2022-07-29T18:34:11.690Z,84.04
2022-07-29T18:36:38.629Z,83.55
2022-07-29T18:39:07.296Z,83.26
2022-07-29T18:41:36.030Z,83.00
2022-07-29T18:44:17.875Z,84.11
2022-07-29T18:46:55.478Z,87.03
2022-07-29T18:49:23.163Z,89.54
2022-07-29T18:51:50.789Z,91.56
2022-07-29T18:54:19.568Z,89.98
2022-07-29T18:56:46.963Z,90.50
2022-07-29T18:59:14.821Z,93.55
2022-07-29T19:01:42.349Z,94.47
2022-07-29T19:04:10.403Z,94.06
2022-07-29T19:06:37.936Z,92.93
2022-07-29T19:09:05.111Z,95.32
2022-07-29T19:11:34.272Z,98.28
2022-07-29T19:14:01.798Z,95.65
2022-07-29T19:16:29.364Z,99.08
2022-07-29T19:18:56.664Z,100.00
2022-07-29T19:21:24.318Z,100.00
2022-07-29T19:24:02.148Z,100.00
2022-07-29T19:26:37.286Z,100.00
2022-07-29T19:29:04.901Z,99.23
2022-07-29T19:31:32.155Z,96.78
2022-07-29T19:33:59.414Z,96.31
2022-07-29T19:36:26.602Z,99.61
2022-07-29T19:38:53.844Z,100.00
2022-07-29T19:41:20.909Z,100.00
2022-07-29T19:43:52.852Z,100.00
2022-07-29T19:46:20.723Z,100.00
2022-07-29T19:48:47.957Z,100.00
2022-07-29T19:51:15.052Z,100.00
2022-07-29T19:53:42.566Z,100.00
2022-07-29T19:56:10.048Z,100.00
2022-07-29T19:58:37.272Z,100.00
2022-07-29T20:01:10.335Z,100.00
2022-07-29T20:03:42.189Z,100.00
2022-07-29T20:06:09.779Z,100.00
2022-07-29T20:08:36.910Z,100.00
2022-07-29T20:11:03.903Z,100.00
2022-07-29T20:13:31.666Z,100.00
2022-07-29T20:15:58.927Z,100.00
2022-07-29T20:18:27.646Z,100.00
2022-07-29T20:20:54.618Z,100.00
2022-07-29T20:23:22.078Z,100.00
2022-07-29T20:25:49.526Z,100.00
2022-07-29T20:28:16.519Z,100.00
2022-07-29T20:30:43.914Z,100.00
2022-07-29T20:33:15.234Z,100.00
2022-07-29T20:35:44.500Z,100.00
2022-07-29T20:38:15.138Z,100.00
2022-07-29T20:40:48.097Z,100.00
2022-07-29T20:43:15.675Z,100.00
2022-07-29T20:45:43.208Z,100.00
2022-07-29T20:48:11.608Z,100.00
2022-07-29T20:50:38.922Z,100.00
2022-07-29T20:53:09.605Z,100.00
2022-07-29T20:55:37.277Z,100.00
2022-07-29T20:58:04.648Z,100.00
2022-07-29T21:00:31.856Z,100.00
2022-07-29T21:03:01.506Z,100.00
2022-07-29T21:05:28.961Z,100.00
2022-07-29T21:07:58.206Z,100.00
2022-07-29T21:10:27.168Z,100.00
2022-07-29T21:12:54.637Z,100.00
2022-07-29T21:15:23.377Z,100.00
2022-07-29T21:17:51.236Z,100.00
2022-07-29T21:20:19.991Z,100.00
2022-07-29T21:22:47.860Z,100.00
2022-07-29T21:25:15.536Z,100.00
2022-07-29T21:27:44.964Z,100.00
2022-07-29T21:30:12.045Z,100.00
2022-07-29T21:32:39.238Z,100.00
2022-07-29T21:35:15.139Z,100.00
2022-07-29T21:37:54.509Z,100.00
2022-07-29T21:40:22.673Z,100.00
2022-07-29T21:42:52.451Z,100.00
2022-07-29T21:45:21.219Z,100.00
2022-07-29T21:47:48.410Z,100.00
2022-07-29T21:50:15.636Z,100.00
2022-07-29T21:52:43.048Z,100.00
2022-07-29T21:55:11.451Z,100.00
2022-07-29T21:57:38.735Z,100.00
2022-07-29T22:00:12.057Z,100.00
2022-07-29T22:02:39.217Z,100.00
2022-07-29T22:05:07.110Z,100.00
2022-07-29T22:07:55.638Z,100.00
2022-07-29T22:10:21.562Z,100.00
2022-07-29T22:12:50.736Z,100.00
2022-07-29T22:15:19.619Z,100.00
2022-07-29T22:17:46.885Z,100.00
2022-07-29T22:20:14.636Z,100.00
2022-07-29T22:22:42.004Z,100.00
2022-07-29T22:25:10.609Z,100.00
2022-07-29T22:27:37.841Z,100.00
2022-07-29T22:30:06.282Z,100.00
2022-07-29T22:32:35.696Z,100.00
2022-07-29T22:35:04.237Z,100.00
2022-07-29T22:37:31.676Z,100.00
2022-07-29T22:39:59.082Z,100.00
2022-07-29T22:42:26.173Z,100.00
2022-07-29T22:44:53.236Z,100.00
2022-07-29T22:47:46.468Z,100.00
2022-07-29T22:50:10.950Z,100.00
2022-07-29T22:52:38.310Z,100.00
2022-07-29T22:55:06.462Z,100.00
2022-07-29T22:57:33.610Z,100.00
2022-07-29T23:00:00.889Z,100.00
2022-07-29T23:02:28.562Z,100.00
2022-07-29T23:04:55.864Z,100.00
2022-07-29T23:07:25.327Z,100.00
2022-07-29T23:09:52.883Z,100.00
2022-07-29T23:12:20.083Z,100.00
2022-07-29T23:14:47.576Z,100.00
2022-07-29T23:17:15.024Z,100.00
2022-07-29T23:19:42.905Z,100.00
2022-07-29T23:22:11.982Z,100.00
2022-07-29T23:24:41.243Z,100.00
2022-07-29T23:27:08.346Z,100.00
2022-07-29T23:29:36.892Z,100.00
2022-07-29T23:32:04.863Z,100.00
2022-07-29T23:34:32.939Z,100.00
2022-07-29T23:37:00.624Z,100.00
2022-07-29T23:39:28.827Z,100.00
2022-07-29T23:41:57.713Z,100.00
2022-07-29T23:44:25.042Z,100.00
2022-07-29T23:46:52.021Z,100.00
2022-07-29T23:49:19.564Z,100.00
2022-07-29T23:51:47.054Z,100.00
2022-07-29T23:54:14.559Z,100.00
2022-07-29T23:56:42.090Z,100.00
2022-07-29T23:59:10.671Z,100.00
